sensor_id;sensor_type;location;lat;lon;timestamp;pressure;altitude;pressure_sealevel;temperature;humidity
788;BME280;16074;42.708;23.312;2023-03-03T00:01:21;139572.03;;;5.22;100.00
788;BME280;16074;42.708;23.312;2023-03-03T00:03:51;139582.78;;;5.27;100.00
788;BME280;16074;42.708;23.312;2023-03-03T00:06:20;139599.56;;;5.34;100.00
788;BME280;16074;42.708;23.312;2023-03-03T00:08:48;139600.78;;;5.34;100.00
788;BME280;16074;42.708;23.312;2023-03-03T00:11:16;139605.56;;;5.36;100.00
788;BME280;16074;42.708;23.312;2023-03-03T00:13:47;139599.56;;;5.34;100.00
788;BME280;16074;42.708;23.312;2023-03-03T00:16:22;139573.19;;;5.23;100.00
788;BME280;16074;42.708;23.312;2023-03-03T00:18:52;139554.03;;;5.15;100.00
788;BME280;16074;42.708;23.312;2023-03-03T00:21:27;139558.81;;;5.17;100.00
788;BME280;16074;42.708;23.312;2023-03-03T00:24:10;139575.59;;;5.24;100.00
788;BME280;16074;42.708;23.312;2023-03-03T00:26:43;139561.22;;;5.18;100.00
788;BME280;16074;42.708;23.312;2023-03-03T00:29:31;139537.28;;;5.08;100.00
788;BME280;16074;42.708;23.312;2023-03-03T00:32:26;139544.44;;;5.11;100.00
788;BME280;16074;42.708;23.312;2023-03-03T00:34:58;139542.09;;;5.10;100.00
788;BME280;16074;42.708;23.312;2023-03-03T00:37:30;139552.84;;;5.14;100.00
788;BME280;16074;42.708;23.312;2023-03-03T00:40:12;139527.72;;;5.04;100.00
788;BME280;16074;42.708;23.312;2023-03-03T00:42:46;139512.09;;;4.97;100.00
788;BME280;16074;42.708;23.312;2023-03-03T00:45:25;139508.53;;;4.96;100.00
788;BME280;16074;42.708;23.312;2023-03-03T00:47:56;139522.91;;;5.02;100.00
788;BME280;16074;42.708;23.312;2023-03-03T00:50:30;139521.69;;;5.01;100.00
788;BME280;16074;42.708;23.312;2023-03-03T00:53:02;139538.47;;;5.08;100.00
788;BME280;16074;42.708;23.312;2023-03-03T00:55:32;139534.91;;;5.07;100.00
788;BME280;16074;42.708;23.312;2023-03-03T00:58:02;139546.84;;;5.12;100.00
788;BME280;16074;42.708;23.312;2023-03-03T01:00:35;139551.63;;;5.14;100.00
788;BME280;16074;42.708;23.312;2023-03-03T01:03:11;139548.06;;;5.12;100.00
788;BME280;16074;42.708;23.312;2023-03-03T01:05:41;139549.22;;;5.13;100.00
788;BME280;16074;42.708;23.312;2023-03-03T01:08:09;139533.69;;;5.06;100.00
788;BME280;16074;42.708;23.312;2023-03-03T01:10:40;139543.25;;;5.10;100.00
788;BME280;16074;42.708;23.312;2023-03-03T01:13:10;139522.91;;;5.02;100.00
788;BME280;16074;42.708;23.312;2023-03-03T01:15:39;139528.88;;;5.04;100.00
788;BME280;16074;42.708;23.312;2023-03-03T01:18:10;139549.22;;;5.13;100.00
788;BME280;16074;42.708;23.312;2023-03-03T01:20:39;139550.44;;;5.13;100.00
788;BME280;16074;42.708;23.312;2023-03-03T01:23:08;139522.91;;;5.02;100.00
788;BME280;16074;42.708;23.312;2023-03-03T01:25:37;139526.50;;;5.03;100.00
788;BME280;16074;42.708;23.312;2023-03-03T01:28:06;139532.50;;;5.06;100.00
788;BME280;16074;42.708;23.312;2023-03-03T01:30:34;139551.63;;;5.14;100.00
788;BME280;16074;42.708;23.312;2023-03-03T01:33:03;139528.88;;;5.04;100.00
788;BME280;16074;42.708;23.312;2023-03-03T01:35:32;139537.28;;;5.08;100.00
788;BME280;16074;42.708;23.312;2023-03-03T01:38:02;139527.72;;;5.04;100.00
788;BME280;16074;42.708;23.312;2023-03-03T01:40:31;139554.03;;;5.15;100.00
788;BME280;16074;42.708;23.312;2023-03-03T01:43:02;139550.44;;;5.13;100.00
788;BME280;16074;42.708;23.312;2023-03-03T01:45:41;139552.84;;;5.14;100.00
788;BME280;16074;42.708;23.312;2023-03-03T01:48:15;139578.00;;;5.25;100.00
788;BME280;16074;42.708;23.312;2023-03-03T01:50:49;139578.00;;;5.25;100.00
788;BME280;16074;42.708;23.312;2023-03-03T01:53:21;139536.06;;;5.07;100.00
788;BME280;16074;42.708;23.312;2023-03-03T01:55:51;139549.22;;;5.13;100.00
788;BME280;16074;42.708;23.312;2023-03-03T01:58:22;139597.16;;;5.33;100.00
788;BME280;16074;42.708;23.312;2023-03-03T02:00:56;139567.22;;;5.20;100.00
788;BME280;16074;42.708;23.312;2023-03-03T02:03:26;139562.44;;;5.18;100.00
788;BME280;16074;42.708;23.312;2023-03-03T02:05:59;139569.63;;;5.21;100.00
788;BME280;16074;42.708;23.312;2023-03-03T02:08:33;139564.81;;;5.19;100.00
788;BME280;16074;42.708;23.312;2023-03-03T02:11:04;139536.06;;;5.07;100.00
788;BME280;16074;42.708;23.312;2023-03-03T02:13:33;139534.91;;;5.07;100.00
788;BME280;16074;42.708;23.312;2023-03-03T02:16:01;139532.50;;;5.06;100.00
788;BME280;16074;42.708;23.312;2023-03-03T02:18:30;139539.69;;;5.09;100.00
788;BME280;16074;42.708;23.312;2023-03-03T02:21:04;139528.88;;;5.04;100.00
788;BME280;16074;42.708;23.312;2023-03-03T02:23:40;139520.53;;;5.01;100.00
788;BME280;16074;42.708;23.312;2023-03-03T02:26:15;139538.47;;;5.08;100.00
788;BME280;16074;42.708;23.312;2023-03-03T02:28:44;139506.16;;;4.95;100.00
788;BME280;16074;42.708;23.312;2023-03-03T02:31:15;139525.31;;;5.03;100.00
788;BME280;16074;42.708;23.312;2023-03-03T02:33:45;139521.69;;;5.01;100.00
788;BME280;16074;42.708;23.312;2023-03-03T02:36:15;139525.31;;;5.03;100.00
788;BME280;16074;42.708;23.312;2023-03-03T02:38:48;139530.09;;;5.05;100.00
788;BME280;16074;42.708;23.312;2023-03-03T02:41:28;139519.31;;;5.00;100.00
788;BME280;16074;42.708;23.312;2023-03-03T02:44:00;139496.56;;;4.91;100.00
788;BME280;16074;42.708;23.312;2023-03-03T02:46:33;139514.50;;;4.98;100.00
788;BME280;16074;42.708;23.312;2023-03-03T02:49:02;139531.28;;;5.05;100.00
788;BME280;16074;42.708;23.312;2023-03-03T02:51:31;139563.59;;;5.19;100.00
788;BME280;16074;42.708;23.312;2023-03-03T02:54:00;139546.84;;;5.12;100.00
788;BME280;16074;42.708;23.312;2023-03-03T02:56:32;139538.47;;;5.08;100.00
788;BME280;16074;42.708;23.312;2023-03-03T02:59:01;139543.25;;;5.10;100.00
788;BME280;16074;42.708;23.312;2023-03-03T03:01:33;139527.72;;;5.04;100.00
788;BME280;16074;42.708;23.312;2023-03-03T03:04:07;139479.78;;;4.84;100.00
788;BME280;16074;42.708;23.312;2023-03-03T03:06:39;139506.16;;;4.95;100.00
788;BME280;16074;42.708;23.312;2023-03-03T03:09:08;139528.88;;;5.04;100.00
788;BME280;16074;42.708;23.312;2023-03-03T03:11:39;139532.50;;;5.06;100.00
788;BME280;16074;42.708;23.312;2023-03-03T03:14:10;139527.72;;;5.04;100.00
788;BME280;16074;42.708;23.312;2023-03-03T03:16:39;139545.66;;;5.11;100.00
788;BME280;16074;42.708;23.312;2023-03-03T03:19:08;139532.50;;;5.06;100.00
788;BME280;16074;42.708;23.312;2023-03-03T03:21:37;139513.34;;;4.98;100.00
788;BME280;16074;42.708;23.312;2023-03-03T03:24:07;139530.09;;;5.05;100.00
788;BME280;16074;42.708;23.312;2023-03-03T03:26:40;139530.09;;;5.05;100.00
788;BME280;16074;42.708;23.312;2023-03-03T03:29:08;139531.28;;;5.05;100.00
788;BME280;16074;42.708;23.312;2023-03-03T03:31:37;139515.72;;;4.99;100.00
788;BME280;16074;42.708;23.312;2023-03-03T03:34:06;139527.72;;;5.04;100.00
788;BME280;16074;42.708;23.312;2023-03-03T03:36:35;139512.09;;;4.97;100.00
788;BME280;16074;42.708;23.312;2023-03-03T03:39:06;139507.31;;;4.95;100.00
788;BME280;16074;42.708;23.312;2023-03-03T03:41:40;139513.34;;;4.98;100.00
788;BME280;16074;42.708;23.312;2023-03-03T03:44:08;139473.81;;;4.81;100.00
788;BME280;16074;42.708;23.312;2023-03-03T03:46:37;139463.03;;;4.77;100.00
788;BME280;16074;42.708;23.312;2023-03-03T03:49:05;139465.41;;;4.78;100.00
788;BME280;16074;42.708;23.312;2023-03-03T03:51:34;139441.47;;;4.68;100.00
788;BME280;16074;42.708;23.312;2023-03-03T03:54:08;139453.44;;;4.73;100.00
788;BME280;16074;42.708;23.312;2023-03-03T03:56:37;139436.69;;;4.66;100.00
788;BME280;16074;42.708;23.312;2023-03-03T03:59:08;139441.47;;;4.68;100.00
788;BME280;16074;42.708;23.312;2023-03-03T04:01:37;139436.69;;;4.66;100.00
788;BME280;16074;42.708;23.312;2023-03-03T04:04:05;139437.91;;;4.67;100.00
788;BME280;16074;42.708;23.312;2023-03-03T04:06:34;139442.69;;;4.68;100.00
788;BME280;16074;42.708;23.312;2023-03-03T04:09:04;139433.09;;;4.65;100.00
788;BME280;16074;42.708;23.312;2023-03-03T04:11:33;139421.13;;;4.60;100.00
788;BME280;16074;42.708;23.312;2023-03-03T04:14:03;139411.56;;;4.56;100.00
788;BME280;16074;42.708;23.312;2023-03-03T04:16:34;139417.50;;;4.58;100.00
788;BME280;16074;42.708;23.312;2023-03-03T04:19:03;139415.13;;;4.57;100.00
788;BME280;16074;42.708;23.312;2023-03-03T04:21:33;139415.13;;;4.57;100.00
788;BME280;16074;42.708;23.312;2023-03-03T04:24:02;139405.59;;;4.53;100.00
788;BME280;16074;42.708;23.312;2023-03-03T04:26:30;139393.63;;;4.48;100.00
788;BME280;16074;42.708;23.312;2023-03-03T04:29:01;139391.22;;;4.47;100.00
788;BME280;16074;42.708;23.312;2023-03-03T04:31:30;139398.41;;;4.50;100.00
788;BME280;16074;42.708;23.312;2023-03-03T04:34:01;139393.63;;;4.48;100.00
788;BME280;16074;42.708;23.312;2023-03-03T04:36:30;139390.00;;;4.47;100.00
788;BME280;16074;42.708;23.312;2023-03-03T04:38:58;139380.41;;;4.43;100.00
788;BME280;16074;42.708;23.312;2023-03-03T04:41:27;139385.22;;;4.45;100.00
788;BME280;16074;42.708;23.312;2023-03-03T04:43:55;139375.63;;;4.41;100.00
788;BME280;16074;42.708;23.312;2023-03-03T04:46:24;139367.28;;;4.37;100.00
788;BME280;16074;42.708;23.312;2023-03-03T04:48:52;139366.06;;;4.37;100.00
788;BME280;16074;42.708;23.312;2023-03-03T04:51:23;139373.22;;;4.40;100.00
788;BME280;16074;42.708;23.312;2023-03-03T04:53:51;139378.03;;;4.42;100.00
788;BME280;16074;42.708;23.312;2023-03-03T04:56:20;139379.25;;;4.42;100.00
788;BME280;16074;42.708;23.312;2023-03-03T04:58:49;139374.47;;;4.40;100.00
788;BME280;16074;42.708;23.312;2023-03-03T05:01:17;139381.63;;;4.43;100.00
788;BME280;16074;42.708;23.312;2023-03-03T05:03:46;139396.00;;;4.49;100.00
788;BME280;16074;42.708;23.312;2023-03-03T05:06:14;139382.81;;;4.44;100.00
788;BME280;16074;42.708;23.312;2023-03-03T05:08:46;139388.81;;;4.46;100.00
788;BME280;16074;42.708;23.312;2023-03-03T05:11:14;139392.38;;;4.48;100.00
788;BME280;16074;42.708;23.312;2023-03-03T05:13:42;139386.44;;;4.45;100.00
788;BME280;16074;42.708;23.312;2023-03-03T05:16:13;139374.47;;;4.40;100.00
788;BME280;16074;42.708;23.312;2023-03-03T05:18:41;139397.19;;;4.50;100.00
788;BME280;16074;42.708;23.312;2023-03-03T05:21:11;139410.31;;;4.55;100.00
788;BME280;16074;42.708;23.312;2023-03-03T05:23:39;139405.59;;;4.53;100.00
788;BME280;16074;42.708;23.312;2023-03-03T05:26:09;139406.75;;;4.54;100.00
788;BME280;16074;42.708;23.312;2023-03-03T05:28:37;139412.72;;;4.56;100.00
788;BME280;16074;42.708;23.312;2023-03-03T05:31:06;139412.72;;;4.56;100.00
788;BME280;16074;42.708;23.312;2023-03-03T05:33:34;139425.91;;;4.62;100.00
788;BME280;16074;42.708;23.312;2023-03-03T05:36:03;139437.91;;;4.67;100.00
788;BME280;16074;42.708;23.312;2023-03-03T05:38:31;139454.66;;;4.73;100.00
788;BME280;16074;42.708;23.312;2023-03-03T05:40:59;139436.69;;;4.66;100.00
788;BME280;16074;42.708;23.312;2023-03-03T05:43:29;139453.44;;;4.73;100.00
788;BME280;16074;42.708;23.312;2023-03-03T05:45:58;139458.22;;;4.75;100.00
788;BME280;16074;42.708;23.312;2023-03-03T05:48:27;139470.22;;;4.80;100.00
788;BME280;16074;42.708;23.312;2023-03-03T05:50:57;139477.41;;;4.83;100.00
788;BME280;16074;42.708;23.312;2023-03-03T05:53:25;139461.84;;;4.76;100.00
788;BME280;16074;42.708;23.312;2023-03-03T05:55:54;139470.22;;;4.80;100.00
788;BME280;16074;42.708;23.312;2023-03-03T05:58:22;139463.03;;;4.77;100.00
788;BME280;16074;42.708;23.312;2023-03-03T06:00:52;139459.44;;;4.75;100.00
788;BME280;16074;42.708;23.312;2023-03-03T06:03:20;139475.00;;;4.82;100.00
788;BME280;16074;42.708;23.312;2023-03-03T06:05:49;139488.16;;;4.87;100.00
788;BME280;16074;42.708;23.312;2023-03-03T06:08:17;139489.38;;;4.88;100.00
788;BME280;16074;42.708;23.312;2023-03-03T06:10:45;139484.59;;;4.86;100.00
788;BME280;16074;42.708;23.312;2023-03-03T06:13:15;139484.59;;;4.86;100.00
788;BME280;16074;42.708;23.312;2023-03-03T06:15:43;139492.94;;;4.89;100.00
788;BME280;16074;42.708;23.312;2023-03-03T06:18:13;139496.56;;;4.91;100.00
788;BME280;16074;42.708;23.312;2023-03-03T06:20:41;139521.69;;;5.01;100.00
788;BME280;16074;42.708;23.312;2023-03-03T06:23:10;139528.88;;;5.04;100.00
788;BME280;16074;42.708;23.312;2023-03-03T06:25:38;139543.25;;;5.10;100.00
788;BME280;16074;42.708;23.312;2023-03-03T06:28:06;139537.28;;;5.08;100.00
788;BME280;16074;42.708;23.312;2023-03-03T06:30:35;139560.03;;;5.17;100.00
788;BME280;16074;42.708;23.312;2023-03-03T06:33:04;139555.25;;;5.15;100.00
788;BME280;16074;42.708;23.312;2023-03-03T06:35:33;139550.44;;;5.13;100.00
788;BME280;16074;42.708;23.312;2023-03-03T06:38:02;139533.69;;;5.06;100.00
788;BME280;16074;42.708;23.312;2023-03-03T06:40:30;139533.69;;;5.06;100.00
788;BME280;16074;42.708;23.312;2023-03-03T06:42:59;139531.28;;;5.05;100.00
788;BME280;16074;42.708;23.312;2023-03-03T06:45:29;139518.13;;;5.00;100.00
788;BME280;16074;42.708;23.312;2023-03-03T06:47:57;139510.94;;;4.97;100.00
788;BME280;16074;42.708;23.312;2023-03-03T06:50:25;139527.72;;;5.04;100.00
788;BME280;16074;42.708;23.312;2023-03-03T06:53:01;139526.50;;;5.03;100.00
788;BME280;16074;42.708;23.312;2023-03-03T06:55:32;139512.09;;;4.97;100.00
788;BME280;16074;42.708;23.312;2023-03-03T06:58:00;139522.91;;;5.02;100.00
788;BME280;16074;42.708;23.312;2023-03-03T07:00:29;139520.53;;;5.01;100.00
788;BME280;16074;42.708;23.312;2023-03-03T07:03:00;139549.22;;;5.13;100.00
788;BME280;16074;42.708;23.312;2023-03-03T07:05:33;139556.41;;;5.16;100.00
788;BME280;16074;42.708;23.312;2023-03-03T07:08:04;139576.81;;;5.24;100.00
788;BME280;16074;42.708;23.312;2023-03-03T07:10:33;139597.16;;;5.33;100.00
788;BME280;16074;42.708;23.312;2023-03-03T07:13:16;139628.31;;;5.46;100.00
788;BME280;16074;42.708;23.312;2023-03-03T07:15:46;139645.09;;;5.53;100.00
788;BME280;16074;42.708;23.312;2023-03-03T07:18:28;139633.13;;;5.48;100.00
788;BME280;16074;42.708;23.312;2023-03-03T07:20:59;139633.13;;;5.48;100.00
788;BME280;16074;42.708;23.312;2023-03-03T07:23:37;139613.94;;;5.40;100.00
788;BME280;16074;42.708;23.312;2023-03-03T07:26:11;139657.09;;;5.58;100.00
788;BME280;16074;42.708;23.312;2023-03-03T07:28:41;139637.91;;;5.50;100.00
788;BME280;16074;42.708;23.312;2023-03-03T07:31:24;139634.28;;;5.48;100.00
788;BME280;16074;42.708;23.312;2023-03-03T07:33:54;139653.47;;;5.56;100.00
788;BME280;16074;42.708;23.312;2023-03-03T07:36:26;139653.47;;;5.56;100.00
788;BME280;16074;42.708;23.312;2023-03-03T07:38:59;139652.28;;;5.56;100.00
788;BME280;16074;42.708;23.312;2023-03-03T07:41:29;139634.28;;;5.48;100.00
788;BME280;16074;42.708;23.312;2023-03-03T07:44:04;139637.91;;;5.50;100.00
788;BME280;16074;42.708;23.312;2023-03-03T07:46:36;139617.50;;;5.41;100.00
788;BME280;16074;42.708;23.312;2023-03-03T07:49:20;139618.72;;;5.42;100.00
788;BME280;16074;42.708;23.312;2023-03-03T07:51:52;139618.72;;;5.42;100.00
788;BME280;16074;42.708;23.312;2023-03-03T07:54:30;139633.13;;;5.48;100.00
788;BME280;16074;42.708;23.312;2023-03-03T07:57:11;139633.13;;;5.48;100.00
788;BME280;16074;42.708;23.312;2023-03-03T07:59:46;139640.31;;;5.51;100.00
788;BME280;16074;42.708;23.312;2023-03-03T08:02:46;139661.88;;;5.60;100.00
788;BME280;16074;42.708;23.312;2023-03-03T08:05:26;139664.28;;;5.61;100.00
788;BME280;16074;42.708;23.312;2023-03-03T08:08:00;139675.03;;;5.65;100.00
788;BME280;16074;42.708;23.312;2023-03-03T08:10:40;139678.63;;;5.67;100.00
788;BME280;16074;42.708;23.312;2023-03-03T08:13:16;139726.63;;;5.87;100.00
788;BME280;16074;42.708;23.312;2023-03-03T08:15:47;139719.44;;;5.84;100.00
788;BME280;16074;42.708;23.312;2023-03-03T08:18:22;139720.66;;;5.84;100.00
788;BME280;16074;42.708;23.312;2023-03-03T08:20:55;139718.25;;;5.83;100.00
788;BME280;16074;42.708;23.312;2023-03-03T08:23:23;139735.03;;;5.90;100.00
788;BME280;16074;42.708;23.312;2023-03-03T08:25:53;139733.81;;;5.89;100.00
788;BME280;16074;42.708;23.312;2023-03-03T08:28:22;139721.81;;;5.85;100.00
788;BME280;16074;42.708;23.312;2023-03-03T08:30:50;139744.63;;;5.94;100.00
788;BME280;16074;42.708;23.312;2023-03-03T08:33:34;139755.41;;;5.98;100.00
788;BME280;16074;42.708;23.312;2023-03-03T08:36:03;139756.56;;;5.99;100.00
788;BME280;16074;42.708;23.312;2023-03-03T08:38:33;139762.59;;;6.01;100.00
788;BME280;16074;42.708;23.312;2023-03-03T08:41:03;139770.97;;;6.05;100.00
788;BME280;16074;42.708;23.312;2023-03-03T08:43:32;139778.16;;;6.08;100.00
788;BME280;16074;42.708;23.312;2023-03-03T08:46:02;139765.00;;;6.02;100.00
788;BME280;16074;42.708;23.312;2023-03-03T08:48:32;139787.75;;;6.12;100.00
788;BME280;16074;42.708;23.312;2023-03-03T08:51:01;139775.75;;;6.07;100.00
788;BME280;16074;42.708;23.312;2023-03-03T08:53:29;139787.75;;;6.12;100.00
788;BME280;16074;42.708;23.312;2023-03-03T08:56:00;139809.34;;;6.21;100.00
788;BME280;16074;42.708;23.312;2023-03-03T08:58:29;139812.97;;;6.22;100.00
788;BME280;16074;42.708;23.312;2023-03-03T09:01:02;139820.13;;;6.25;100.00
788;BME280;16074;42.708;23.312;2023-03-03T09:03:31;139840.53;;;6.34;100.00
788;BME280;16074;42.708;23.312;2023-03-03T09:05:59;139850.13;;;6.38;100.00
788;BME280;16074;42.708;23.312;2023-03-03T09:08:27;139853.69;;;6.39;100.00
788;BME280;16074;42.708;23.312;2023-03-03T09:10:55;139858.50;;;6.41;100.00
788;BME280;16074;42.708;23.312;2023-03-03T09:13:24;139889.69;;;6.54;100.00
788;BME280;16074;42.708;23.312;2023-03-03T09:15:55;139901.69;;;6.59;100.00
788;BME280;16074;42.708;23.312;2023-03-03T09:18:30;139913.69;;;6.64;100.00
788;BME280;16074;42.708;23.312;2023-03-03T09:20:59;139952.03;;;6.80;100.00
788;BME280;16074;42.708;23.312;2023-03-03T09:23:30;139968.84;;;6.87;100.00
788;BME280;16074;42.708;23.312;2023-03-03T09:26:31;139995.25;;;6.98;100.00
788;BME280;16074;42.708;23.312;2023-03-03T09:29:18;140014.47;;;7.06;100.00
788;BME280;16074;42.708;23.312;2023-03-03T09:31:53;140010.88;;;7.05;100.00
788;BME280;16074;42.708;23.312;2023-03-03T09:34:24;140012.06;;;7.05;100.00
788;BME280;16074;42.708;23.312;2023-03-03T09:36:54;140010.88;;;7.05;100.00
788;BME280;16074;42.708;23.312;2023-03-03T09:39:24;140025.25;;;7.10;100.00
788;BME280;16074;42.708;23.312;2023-03-03T09:42:12;140019.25;;;7.08;100.00
788;BME280;16074;42.708;23.312;2023-03-03T09:45:21;139918.50;;;6.66;100.00
788;BME280;16074;42.708;23.312;2023-03-03T09:48:06;139958.06;;;6.83;100.00
788;BME280;16074;42.708;23.312;2023-03-03T09:50:47;139968.84;;;6.87;100.00
788;BME280;16074;42.708;23.312;2023-03-03T09:53:28;139983.25;;;6.93;100.00
788;BME280;16074;42.708;23.312;2023-03-03T09:56:06;139997.66;;;6.99;100.00
788;BME280;16074;42.708;23.312;2023-03-03T09:58:48;140027.66;;;7.11;100.00
788;BME280;16074;42.708;23.312;2023-03-03T10:01:35;140037.25;;;7.15;100.00
788;BME280;16074;42.708;23.312;2023-03-03T10:04:23;140063.66;;;7.26;100.00
788;BME280;16074;42.708;23.312;2023-03-03T10:07:07;140061.25;;;7.25;100.00
788;BME280;16074;42.708;23.312;2023-03-03T10:09:49;140073.28;;;7.30;100.00
788;BME280;16074;42.708;23.312;2023-03-03T10:12:26;140091.25;;;7.38;100.00
788;BME280;16074;42.708;23.312;2023-03-03T10:15:16;140096.06;;;7.40;100.00
788;BME280;16074;42.708;23.312;2023-03-03T10:17:49;140116.50;;;7.48;100.00
788;BME280;16074;42.708;23.312;2023-03-03T10:20:30;140114.09;;;7.47;100.00
788;BME280;16074;42.708;23.312;2023-03-03T10:23:22;140110.47;;;7.46;100.00
788;BME280;16074;42.708;23.312;2023-03-03T10:26:02;140129.69;;;7.54;100.00
788;BME280;16074;42.708;23.312;2023-03-03T10:28:54;140138.13;;;7.57;100.00
788;BME280;16074;42.708;23.312;2023-03-03T10:31:44;140144.09;;;7.60;100.00
788;BME280;16074;42.708;23.312;2023-03-03T10:34:25;140135.72;;;7.56;100.00
788;BME280;16074;42.708;23.312;2023-03-03T10:37:05;140130.91;;;7.54;100.00
788;BME280;16074;42.708;23.312;2023-03-03T10:39:54;140097.28;;;7.40;100.00
788;BME280;16074;42.708;23.312;2023-03-03T10:42:58;140135.72;;;7.56;100.00
788;BME280;16074;42.708;23.312;2023-03-03T10:45:49;140121.31;;;7.50;100.00
788;BME280;16074;42.708;23.312;2023-03-03T10:48:35;140139.28;;;7.58;100.00
788;BME280;16074;42.708;23.312;2023-03-03T10:51:13;140136.88;;;7.57;100.00
788;BME280;16074;42.708;23.312;2023-03-03T10:53:58;140136.88;;;7.57;100.00
788;BME280;16074;42.708;23.312;2023-03-03T10:56:39;140088.84;;;7.37;100.00
788;BME280;16074;42.708;23.312;2023-03-03T10:59:36;140105.66;;;7.44;100.00
788;BME280;16074;42.708;23.312;2023-03-03T11:02:15;140109.28;;;7.45;100.00
788;BME280;16074;42.708;23.312;2023-03-03T11:05:03;140115.28;;;7.48;100.00
788;BME280;16074;42.708;23.312;2023-03-03T11:07:40;140123.72;;;7.51;100.00
788;BME280;16074;42.708;23.312;2023-03-03T11:10:23;140138.13;;;7.57;100.00
788;BME280;16074;42.708;23.312;2023-03-03T11:13:01;140152.53;;;7.63;100.00
788;BME280;16074;42.708;23.312;2023-03-03T11:15:49;140148.91;;;7.62;100.00
788;BME280;16074;42.708;23.312;2023-03-03T11:18:30;140168.13;;;7.70;100.00
788;BME280;16074;42.708;23.312;2023-03-03T11:21:08;140139.28;;;7.58;100.00
788;BME280;16074;42.708;23.312;2023-03-03T11:23:53;140132.09;;;7.55;100.00
788;BME280;16074;42.708;23.312;2023-03-03T11:26:36;140093.66;;;7.39;100.00
788;BME280;16074;42.708;23.312;2023-03-03T11:29:19;140080.47;;;7.33;100.00
788;BME280;16074;42.708;23.312;2023-03-03T11:31:55;140085.28;;;7.35;100.00
788;BME280;16074;42.708;23.312;2023-03-03T11:34:41;140045.69;;;7.19;100.00
788;BME280;16074;42.708;23.312;2023-03-03T11:37:16;140048.06;;;7.20;100.00
788;BME280;16074;42.708;23.312;2023-03-03T11:39:48;140049.25;;;7.20;100.00
788;BME280;16074;42.708;23.312;2023-03-03T11:42:23;140006.09;;;7.03;100.00
788;BME280;16074;42.708;23.312;2023-03-03T11:44:55;140003.69;;;7.02;100.00
788;BME280;16074;42.708;23.312;2023-03-03T11:47:31;140033.66;;;7.14;100.00
788;BME280;16074;42.708;23.312;2023-03-03T11:50:04;140003.69;;;7.02;100.00
788;BME280;16074;42.708;23.312;2023-03-03T11:52:41;139995.25;;;6.98;100.00
788;BME280;16074;42.708;23.312;2023-03-03T11:55:18;140018.09;;;7.07;100.00
788;BME280;16074;42.708;23.312;2023-03-03T11:57:53;140040.88;;;7.17;100.00
788;BME280;16074;42.708;23.312;2023-03-03T12:00:30;140052.88;;;7.22;100.00
788;BME280;16074;42.708;23.312;2023-03-03T12:03:16;140084.09;;;7.35;100.00
788;BME280;16074;42.708;23.312;2023-03-03T12:05:56;140115.28;;;7.48;100.00
788;BME280;16074;42.708;23.312;2023-03-03T12:08:41;140124.88;;;7.52;100.00
788;BME280;16074;42.708;23.312;2023-03-03T12:11:15;140141.69;;;7.59;100.00
788;BME280;16074;42.708;23.312;2023-03-03T12:13:54;140140.53;;;7.58;100.00
788;BME280;16074;42.708;23.312;2023-03-03T12:16:37;140165.72;;;7.69;100.00
788;BME280;16074;42.708;23.312;2023-03-03T12:19:16;140153.72;;;7.64;100.00
788;BME280;16074;42.708;23.312;2023-03-03T12:22:15;140146.50;;;7.61;100.00
788;BME280;16074;42.708;23.312;2023-03-03T12:25:00;140136.88;;;7.57;100.00
788;BME280;16074;42.708;23.312;2023-03-03T12:27:36;140151.31;;;7.63;100.00
788;BME280;16074;42.708;23.312;2023-03-03T12:30:16;140145.31;;;7.60;100.00
788;BME280;16074;42.708;23.312;2023-03-03T12:33:05;140136.88;;;7.57;100.00
788;BME280;16074;42.708;23.312;2023-03-03T12:35:41;140127.28;;;7.53;100.00
788;BME280;16074;42.708;23.312;2023-03-03T12:38:22;140074.50;;;7.31;100.00
788;BME280;16074;42.708;23.312;2023-03-03T12:41:01;140069.69;;;7.29;100.00
788;BME280;16074;42.708;23.312;2023-03-03T12:43:46;140015.69;;;7.07;100.00
788;BME280;16074;42.708;23.312;2023-03-03T12:46:21;140040.88;;;7.17;100.00
788;BME280;16074;42.708;23.312;2023-03-03T12:48:55;140058.88;;;7.24;100.00
788;BME280;16074;42.708;23.312;2023-03-03T12:51:47;140032.44;;;7.13;100.00
788;BME280;16074;42.708;23.312;2023-03-03T12:54:39;140014.47;;;7.06;100.00
788;BME280;16074;42.708;23.312;2023-03-03T12:57:18;139989.28;;;6.96;100.00
788;BME280;16074;42.708;23.312;2023-03-03T13:00:02;140012.06;;;7.05;100.00
788;BME280;16074;42.708;23.312;2023-03-03T13:02:40;140018.09;;;7.07;100.00
788;BME280;16074;42.708;23.312;2023-03-03T13:05:19;140002.47;;;7.01;100.00
788;BME280;16074;42.708;23.312;2023-03-03T13:07:56;140009.66;;;7.04;100.00
788;BME280;16074;42.708;23.312;2023-03-03T13:10:35;140025.25;;;7.10;100.00
788;BME280;16074;42.708;23.312;2023-03-03T13:13:10;140021.66;;;7.09;100.00
788;BME280;16074;42.708;23.312;2023-03-03T13:15:43;140045.69;;;7.19;100.00
788;BME280;16074;42.708;23.312;2023-03-03T13:18:37;140036.06;;;7.15;100.00
788;BME280;16074;42.708;23.312;2023-03-03T13:21:15;139985.66;;;6.94;100.00
788;BME280;16074;42.708;23.312;2023-03-03T13:23:50;140007.25;;;7.03;100.00
788;BME280;16074;42.708;23.312;2023-03-03T13:26:25;140038.47;;;7.16;100.00
788;BME280;16074;42.708;23.312;2023-03-03T13:29:03;140068.47;;;7.28;100.00
788;BME280;16074;42.708;23.312;2023-03-03T13:31:38;140126.09;;;7.52;100.00
788;BME280;16074;42.708;23.312;2023-03-03T13:34:16;140182.53;;;7.76;100.00
788;BME280;16074;42.708;23.312;2023-03-03T13:36:50;140224.56;;;7.93;100.00